Time;durP1;ratioP1;P1;durP2;ratioP2;P2;SDS_P1;SDS_P2;PMS_P1;PMS_P2;Temp;Humidity;BMP_temperature;BMP_pressure;BME280_temperature;BME280_humidity;BME280_pressure;Samples;Min_cycle;Max_cycle;Signal;HPM_P1;HPM_P2
2021/08/18 00:00:49;;;;;;;;;;;15.70;99.90;;;;;;5081102;28;19978;-85
2021/08/18 00:03:15;;;;;;;;;;;15.80;99.90;;;;;;5074194;28;19919;-83
2021/08/18 00:05:41;;;;;;;;;;;15.80;99.90;;;;;;5075296;28;19920;-83
2021/08/18 00:08:10;;;;;;;;;;;15.80;99.90;;;;;;5078746;28;20334;-85
2021/08/18 00:10:36;;;;;;;;;;;15.80;99.90;;;;;;5071651;28;19917;-81
2021/08/18 00:13:02;;;;;;;;;;;15.80;99.90;;;;;;5077194;28;19987;-85
2021/08/18 00:15:29;;;;;;;;;;;15.80;99.90;;;;;;5065426;28;20303;-87
2021/08/18 00:17:59;;;;;;;;;;;15.80;99.90;;;;;;5078561;28;19970;-82
2021/08/18 00:20:25;;;;;;;;;;;15.80;99.90;;;;;;5069047;28;19966;-83
2021/08/18 00:22:51;;;;;;;;;;;15.80;99.90;;;;;;5065843;28;19908;-82
2021/08/18 00:25:16;;;;;;;;;;;15.70;99.90;;;;;;5069393;28;19919;-82
2021/08/18 00:27:42;;;;;;;;;;;15.80;99.90;;;;;;5070328;28;19917;-77
2021/08/18 00:30:07;;;;;;;;;;;15.70;99.90;;;;;;5094127;28;19908;-83
2021/08/18 00:32:33;;;;;;;;;;;15.70;99.90;;;;;;5081965;28;19938;-84
2021/08/18 00:34:58;;;;;;;;;;;15.70;99.90;;;;;;5072328;28;19919;-84
2021/08/18 00:37:24;;;;;;;;;;;15.70;99.90;;;;;;5066920;28;20314;-83
2021/08/18 00:39:50;;;;;;;;;;;15.70;99.90;;;;;;5079394;28;19912;-85
2021/08/18 00:42:17;;;;;;;;;;;15.70;99.90;;;;;;5072208;28;19916;-82
2021/08/18 00:44:43;;;;;;;;;;;15.70;99.90;;;;;;5065539;28;19916;-77
2021/08/18 00:47:08;;;;;;;;;;;15.70;99.90;;;;;;5074315;28;19913;-82
2021/08/18 00:49:34;;;;;;;;;;;15.70;99.90;;;;;;5086356;28;19966;-81
2021/08/18 00:52:00;;;;;;;;;;;15.70;99.90;;;;;;5076103;28;19916;-84
2021/08/18 00:54:26;;;;;;;;;;;15.70;99.90;;;;;;5068046;28;19913;-83
2021/08/18 00:56:52;;;;;;;;;;;15.70;99.90;;;;;;5077409;28;19922;-83
2021/08/18 00:59:18;;;;;;;;;;;15.60;99.90;;;;;;5069895;28;19927;-83
2021/08/18 01:01:43;;;;;;;;;;;15.70;99.90;;;;;;5066142;28;20234;-80
2021/08/18 01:04:10;;;;;;;;;;;15.70;99.90;;;;;;5081878;28;19913;-82
2021/08/18 01:06:40;;;;;;;;;;;15.70;99.90;;;;;;5083205;28;19983;-83
2021/08/18 01:09:07;;;;;;;;;;;15.70;99.90;;;;;;5063683;28;19917;-84
2021/08/18 01:11:34;;;;;;;;;;;15.60;99.90;;;;;;5066778;28;20323;-80
2021/08/18 01:13:59;;;;;;;;;;;15.70;99.90;;;;;;5074077;28;19912;-84
2021/08/18 01:16:25;;;;;;;;;;;15.60;99.90;;;;;;5078219;28;19917;-84
2021/08/18 01:18:50;;;;;;;;;;;15.70;99.90;;;;;;5079749;28;19951;-85
2021/08/18 01:21:16;;;;;;;;;;;15.70;99.90;;;;;;5057384;28;19912;-79
2021/08/18 01:23:42;;;;;;;;;;;15.70;99.90;;;;;;5066674;28;19981;-84
2021/08/18 01:26:07;;;;;;;;;;;15.70;99.90;;;;;;5083057;28;19908;-83
2021/08/18 01:28:33;;;;;;;;;;;15.70;99.90;;;;;;5081370;28;19912;-82
2021/08/18 01:30:58;;;;;;;;;;;15.70;99.90;;;;;;5074199;28;19980;-82
2021/08/18 01:33:24;;;;;;;;;;;15.70;99.90;;;;;;5076003;28;19920;-83
2021/08/18 01:35:51;;;;;;;;;;;15.70;99.90;;;;;;5066023;28;19923;-83
2021/08/18 01:38:17;;;;;;;;;;;15.70;99.90;;;;;;5074764;28;19916;-82
2021/08/18 01:40:44;;;;;;;;;;;15.70;99.90;;;;;;5071092;28;20311;-83
2021/08/18 01:43:10;;;;;;;;;;;15.70;99.90;;;;;;5067650;28;20538;-84
2021/08/18 01:45:37;;;;;;;;;;;15.70;99.90;;;;;;5075710;28;19908;-83
2021/08/18 01:48:07;;;;;;;;;;;15.70;99.90;;;;;;5072361;28;20397;-83
2021/08/18 01:50:33;;;;;;;;;;;15.70;99.90;;;;;;5071553;28;19920;-85
2021/08/18 01:52:58;;;;;;;;;;;15.70;99.90;;;;;;5067748;28;20211;-84
2021/08/18 01:55:24;;;;;;;;;;;15.70;99.90;;;;;;5073834;28;19912;-83
2021/08/18 01:57:50;;;;;;;;;;;15.70;99.90;;;;;;5067955;28;19916;-83
2021/08/18 02:00:17;;;;;;;;;;;15.60;99.90;;;;;;5068415;28;19912;-83
2021/08/18 02:02:43;;;;;;;;;;;15.60;99.90;;;;;;5065547;28;19917;-80
2021/08/18 02:05:09;;;;;;;;;;;15.60;99.90;;;;;;5073259;28;19912;-83
2021/08/18 02:07:35;;;;;;;;;;;15.60;99.90;;;;;;5065528;28;19909;-83
2021/08/18 02:10:01;;;;;;;;;;;15.60;99.90;;;;;;5068498;28;19970;-83
2021/08/18 02:12:26;;;;;;;;;;;15.60;99.90;;;;;;5075746;28;19913;-83
2021/08/18 02:14:52;;;;;;;;;;;15.60;99.90;;;;;;5077089;28;20447;-82
2021/08/18 02:17:17;;;;;;;;;;;15.60;99.90;;;;;;5080787;28;20002;-84
2021/08/18 02:19:43;;;;;;;;;;;15.60;99.90;;;;;;5062325;28;20276;-83
2021/08/18 02:22:08;;;;;;;;;;;15.60;99.90;;;;;;5069092;28;19908;-82
2021/08/18 02:24:34;;;;;;;;;;;15.60;99.90;;;;;;5074768;28;20319;-81
2021/08/18 02:27:00;;;;;;;;;;;15.60;99.90;;;;;;5077609;28;20006;-82
2021/08/18 02:29:25;;;;;;;;;;;15.60;99.90;;;;;;5076439;28;19999;-82
2021/08/18 02:31:51;;;;;;;;;;;15.60;99.90;;;;;;5066057;28;19927;-83
2021/08/18 02:34:17;;;;;;;;;;;15.60;99.90;;;;;;5076633;28;20333;-82
2021/08/18 02:36:42;;;;;;;;;;;15.60;99.90;;;;;;5073922;28;20278;-81
2021/08/18 02:39:08;;;;;;;;;;;15.60;99.90;;;;;;5063882;28;19944;-83
2021/08/18 02:41:34;;;;;;;;;;;15.60;99.90;;;;;;5081324;28;19912;-80
2021/08/18 02:43:59;;;;;;;;;;;15.60;99.90;;;;;;5060393;28;19912;-83
2021/08/18 02:46:25;;;;;;;;;;;15.60;99.90;;;;;;5088985;28;19913;-81
2021/08/18 02:48:50;;;;;;;;;;;15.60;99.90;;;;;;5074551;28;19969;-81
2021/08/18 02:51:16;;;;;;;;;;;15.60;99.90;;;;;;5074822;28;20354;-81
2021/08/18 02:53:41;;;;;;;;;;;15.60;99.90;;;;;;5079582;28;19913;-83
2021/08/18 02:56:07;;;;;;;;;;;15.60;99.90;;;;;;5063382;28;19967;-82
2021/08/18 02:58:32;;;;;;;;;;;15.60;99.90;;;;;;5078233;28;19917;-82
2021/08/18 03:00:58;;;;;;;;;;;15.60;99.90;;;;;;5057067;28;19913;-83
2021/08/18 03:03:24;;;;;;;;;;;15.60;99.90;;;;;;5074629;28;20299;-80
2021/08/18 03:05:49;;;;;;;;;;;15.70;99.90;;;;;;5077187;28;19919;-85
2021/08/18 03:08:15;;;;;;;;;;;15.70;99.90;;;;;;5068724;28;19963;-83
2021/08/18 03:10:40;;;;;;;;;;;15.60;99.90;;;;;;5070951;28;20188;-83
2021/08/18 03:13:06;;;;;;;;;;;15.60;99.90;;;;;;5070233;28;20361;-82
2021/08/18 03:15:31;;;;;;;;;;;15.60;99.90;;;;;;5075111;28;20219;-84
2021/08/18 03:17:57;;;;;;;;;;;15.60;99.90;;;;;;5072916;28;19917;-83
2021/08/18 03:20:23;;;;;;;;;;;15.60;99.90;;;;;;5073086;28;19917;-83
2021/08/18 03:22:48;;;;;;;;;;;15.60;99.90;;;;;;5066799;28;19917;-84
2021/08/18 03:25:14;;;;;;;;;;;15.60;99.90;;;;;;5074230;28;19923;-83
2021/08/18 03:27:41;;;;;;;;;;;15.60;99.90;;;;;;5067911;28;19915;-84
2021/08/18 03:30:07;;;;;;;;;;;15.50;99.90;;;;;;5064684;28;20322;-84
2021/08/18 03:32:33;;;;;;;;;;;15.50;99.90;;;;;;5071744;28;19916;-82
2021/08/18 03:34:58;;;;;;;;;;;15.50;99.90;;;;;;5064687;28;20300;-84
2021/08/18 03:37:24;;;;;;;;;;;15.50;99.90;;;;;;5074234;28;19919;-84
2021/08/18 03:39:49;;;;;;;;;;;15.50;99.90;;;;;;5069425;28;19923;-84
2021/08/18 03:42:15;;;;;;;;;;;15.50;99.90;;;;;;5070932;28;20307;-83
2021/08/18 03:44:41;;;;;;;;;;;15.50;99.90;;;;;;5072856;28;19934;-83
2021/08/18 03:47:07;;;;;;;;;;;15.60;99.90;;;;;;5064015;28;19922;-82
2021/08/18 03:49:32;;;;;;;;;;;15.60;99.90;;;;;;5068829;28;19921;-84
2021/08/18 03:51:58;;;;;;;;;;;15.60;99.90;;;;;;5069925;28;20299;-86
2021/08/18 03:54:23;;;;;;;;;;;15.60;99.90;;;;;;5068350;28;19912;-83
2021/08/18 03:56:49;;;;;;;;;;;15.60;99.90;;;;;;5069669;28;19913;-86
2021/08/18 03:59:14;;;;;;;;;;;15.60;99.90;;;;;;5062495;28;20362;-83
2021/08/18 04:01:40;;;;;;;;;;;15.60;99.90;;;;;;5072235;28;19908;-84
2021/08/18 04:04:06;;;;;;;;;;;15.60;99.90;;;;;;5074657;28;19938;-85
2021/08/18 04:06:31;;;;;;;;;;;15.60;99.90;;;;;;5075250;28;19987;-84
2021/08/18 04:08:58;;;;;;;;;;;15.60;99.90;;;;;;5091395;28;19917;-84
2021/08/18 04:11:24;;;;;;;;;;;15.60;99.90;;;;;;5073079;28;19912;-84
2021/08/18 04:13:50;;;;;;;;;;;15.60;99.90;;;;;;5075454;28;19999;-84
2021/08/18 04:16:15;;;;;;;;;;;15.60;99.90;;;;;;5075236;28;20327;-84
2021/08/18 04:18:41;;;;;;;;;;;15.60;99.90;;;;;;5072997;28;19915;-83
2021/08/18 04:21:06;;;;;;;;;;;15.60;99.90;;;;;;5070725;28;19960;-82
2021/08/18 04:23:32;;;;;;;;;;;15.60;99.90;;;;;;5080135;28;19912;-83
2021/08/18 04:25:57;;;;;;;;;;;15.50;99.90;;;;;;5076523;28;19912;-82
2021/08/18 04:28:23;;;;;;;;;;;15.50;99.90;;;;;;5064001;28;20000;-83
2021/08/18 04:30:48;;;;;;;;;;;15.50;99.90;;;;;;5068571;28;19912;-86
2021/08/18 04:33:14;;;;;;;;;;;15.60;99.90;;;;;;5073042;28;19932;-83
2021/08/18 04:35:40;;;;;;;;;;;15.50;99.90;;;;;;5074424;28;19920;-83
2021/08/18 04:38:05;;;;;;;;;;;15.50;99.90;;;;;;5074120;28;19920;-84
2021/08/18 04:40:31;;;;;;;;;;;15.60;99.90;;;;;;5074629;28;20001;-82
2021/08/18 04:42:56;;;;;;;;;;;15.60;99.90;;;;;;5071695;28;19941;-83
2021/08/18 04:45:22;;;;;;;;;;;15.60;99.90;;;;;;5069040;28;19921;-81
2021/08/18 04:47:47;;;;;;;;;;;15.50;99.90;;;;;;5075150;28;19919;-85
2021/08/18 04:50:14;;;;;;;;;;;15.60;99.90;;;;;;5073939;28;19942;-82
2021/08/18 04:52:40;;;;;;;;;;;15.50;99.90;;;;;;5074792;28;19963;-83
2021/08/18 04:55:05;;;;;;;;;;;15.60;99.90;;;;;;5073259;28;20051;-83
2021/08/18 04:57:31;;;;;;;;;;;15.50;99.90;;;;;;5070782;28;20286;-83
2021/08/18 04:59:57;;;;;;;;;;;15.50;99.90;;;;;;5072261;28;19985;-85
2021/08/18 05:02:22;;;;;;;;;;;15.50;99.90;;;;;;5076105;28;19923;-83
2021/08/18 05:04:48;;;;;;;;;;;15.50;99.90;;;;;;5073567;28;19913;-84
2021/08/18 05:07:13;;;;;;;;;;;15.50;99.90;;;;;;5072921;28;19970;-84
2021/08/18 05:09:39;;;;;;;;;;;15.50;99.90;;;;;;5070847;28;19913;-83
2021/08/18 05:12:05;;;;;;;;;;;15.50;99.90;;;;;;5078326;28;20286;-84
2021/08/18 05:14:31;;;;;;;;;;;15.50;99.90;;;;;;5072239;28;19913;-84
2021/08/18 05:16:56;;;;;;;;;;;15.40;99.90;;;;;;5074072;28;19928;-85
2021/08/18 05:19:22;;;;;;;;;;;15.50;99.90;;;;;;5072660;28;19987;-85
2021/08/18 05:21:47;;;;;;;;;;;15.50;99.90;;;;;;5069722;28;19917;-85
2021/08/18 05:24:13;;;;;;;;;;;15.50;99.90;;;;;;5069122;28;19917;-84
2021/08/18 05:26:38;;;;;;;;;;;15.50;99.90;;;;;;5069245;28;19912;-84
2021/08/18 05:29:04;;;;;;;;;;;15.50;99.90;;;;;;5070759;28;19913;-83
2021/08/18 05:31:30;;;;;;;;;;;15.50;99.90;;;;;;5072815;28;19912;-84
2021/08/18 05:33:55;;;;;;;;;;;15.50;99.90;;;;;;5068849;28;19925;-84
2021/08/18 05:36:22;;;;;;;;;;;15.50;99.90;;;;;;5064680;28;19925;-85
2021/08/18 05:38:48;;;;;;;;;;;15.50;99.90;;;;;;5072887;28;19917;-85
2021/08/18 05:41:14;;;;;;;;;;;15.50;99.90;;;;;;5072545;28;20306;-85
2021/08/18 05:43:40;;;;;;;;;;;15.60;99.90;;;;;;5060306;28;20201;-81
2021/08/18 05:46:06;;;;;;;;;;;15.60;99.90;;;;;;5059237;28;19923;-85
2021/08/18 05:48:31;;;;;;;;;;;15.60;99.90;;;;;;5078840;28;19920;-85
2021/08/18 05:50:57;;;;;;;;;;;15.60;99.90;;;;;;5067226;28;20230;-84
2021/08/18 05:53:22;;;;;;;;;;;15.60;99.90;;;;;;5063095;28;20030;-85
2021/08/18 05:55:48;;;;;;;;;;;15.70;99.90;;;;;;5062457;28;19925;-84
2021/08/18 05:58:14;;;;;;;;;;;15.70;99.90;;;;;;5062665;28;19966;-84
2021/08/18 06:00:40;;;;;;;;;;;15.70;99.90;;;;;;5062451;28;19912;-84
2021/08/18 06:03:05;;;;;;;;;;;15.70;99.90;;;;;;5063098;28;19949;-83
2021/08/18 06:05:31;;;;;;;;;;;15.70;99.90;;;;;;5063703;28;19912;-85
2021/08/18 06:07:57;;;;;;;;;;;15.70;99.90;;;;;;5080405;28;19917;-85
2021/08/18 06:10:23;;;;;;;;;;;15.80;99.90;;;;;;5072570;28;20475;-85
2021/08/18 06:12:48;;;;;;;;;;;15.80;99.90;;;;;;5068019;28;19923;-81
2021/08/18 06:15:14;;;;;;;;;;;15.80;99.90;;;;;;5069425;28;19913;-83
2021/08/18 06:17:40;;;;;;;;;;;15.80;99.90;;;;;;5075908;28;19913;-85
2021/08/18 06:20:06;;;;;;;;;;;15.90;99.90;;;;;;5077984;28;19931;-84
2021/08/18 06:22:31;;;;;;;;;;;15.90;99.90;;;;;;5073550;28;20378;-83
2021/08/18 06:25:01;;;;;;;;;;;15.90;99.90;;;;;;5082591;28;19916;-83
2021/08/18 06:27:27;;;;;;;;;;;16.00;99.90;;;;;;5069529;28;20223;-83
2021/08/18 06:29:53;;;;;;;;;;;16.00;99.90;;;;;;5067972;28;19920;-82
2021/08/18 06:32:18;;;;;;;;;;;16.00;99.90;;;;;;5068530;28;20391;-83
2021/08/18 06:34:44;;;;;;;;;;;16.00;99.90;;;;;;5072100;28;19962;-82
2021/08/18 06:37:10;;;;;;;;;;;16.10;99.90;;;;;;5069074;28;19921;-84
2021/08/18 06:39:36;;;;;;;;;;;16.10;99.90;;;;;;5061746;28;20215;-81
2021/08/18 06:42:02;;;;;;;;;;;16.10;99.90;;;;;;5074994;28;19956;-83
2021/08/18 06:44:27;;;;;;;;;;;16.10;99.90;;;;;;5073195;28;20009;-82
2021/08/18 06:46:53;;;;;;;;;;;16.20;99.90;;;;;;5073614;28;19916;-79
2021/08/18 06:49:18;;;;;;;;;;;16.20;99.90;;;;;;5074915;28;20375;-84
2021/08/18 06:51:44;;;;;;;;;;;16.20;99.90;;;;;;5066412;28;20249;-84
2021/08/18 06:54:10;;;;;;;;;;;16.20;99.90;;;;;;5071906;28;19940;-84
2021/08/18 06:56:35;;;;;;;;;;;16.30;99.90;;;;;;5072739;28;19924;-87
2021/08/18 06:59:01;;;;;;;;;;;16.30;99.90;;;;;;5070845;28;20006;-85
2021/08/18 07:01:26;;;;;;;;;;;16.40;99.90;;;;;;5067763;28;19928;-84
2021/08/18 07:03:52;;;;;;;;;;;16.40;99.90;;;;;;5081304;28;19912;-84
2021/08/18 07:06:17;;;;;;;;;;;16.40;99.90;;;;;;5070542;28;20007;-83
2021/08/18 07:08:43;;;;;;;;;;;16.50;99.90;;;;;;5075970;28;19950;-83
2021/08/18 07:11:09;;;;;;;;;;;16.50;99.90;;;;;;5069173;28;20197;-84
2021/08/18 07:13:34;;;;;;;;;;;16.60;99.90;;;;;;5070593;28;20003;-84
2021/08/18 07:16:00;;;;;;;;;;;16.60;99.90;;;;;;5074462;28;19938;-84
2021/08/18 07:18:25;;;;;;;;;;;16.70;99.90;;;;;;5070258;28;19912;-84
2021/08/18 07:20:51;;;;;;;;;;;16.70;99.90;;;;;;5072237;28;19916;-83
2021/08/18 07:23:17;;;;;;;;;;;16.80;99.90;;;;;;5073848;28;19912;-84
2021/08/18 07:25:42;;;;;;;;;;;16.80;99.90;;;;;;5075958;28;20265;-85
2021/08/18 07:28:08;;;;;;;;;;;16.90;99.90;;;;;;5075700;28;19931;-84
2021/08/18 07:30:33;;;;;;;;;;;17.00;99.90;;;;;;5080492;28;20212;-84
2021/08/18 07:32:59;;;;;;;;;;;17.00;99.90;;;;;;5073600;28;20376;-85
2021/08/18 07:35:25;;;;;;;;;;;17.10;99.90;;;;;;5076010;28;19921;-87
2021/08/18 07:37:50;;;;;;;;;;;17.20;99.90;;;;;;5076537;28;20007;-88
2021/08/18 07:40:16;;;;;;;;;;;17.20;99.90;;;;;;5074675;28;20299;-85
2021/08/18 07:42:42;;;;;;;;;;;17.30;99.90;;;;;;5076820;28;20049;-84
2021/08/18 07:45:08;;;;;;;;;;;17.30;99.90;;;;;;5066638;28;19913;-84
2021/08/18 07:47:33;;;;;;;;;;;17.40;99.90;;;;;;5077302;28;20258;-84
2021/08/18 07:49:59;;;;;;;;;;;17.40;99.90;;;;;;5074483;28;19947;-83
2021/08/18 07:52:24;;;;;;;;;;;17.50;99.90;;;;;;5076671;28;19924;-84
2021/08/18 07:54:50;;;;;;;;;;;17.50;99.90;;;;;;5078671;28;19959;-77
2021/08/18 07:57:16;;;;;;;;;;;17.60;99.90;;;;;;5073067;28;19959;-85
2021/08/18 07:59:41;;;;;;;;;;;17.60;99.90;;;;;;5075076;28;19912;-84
2021/08/18 08:02:07;;;;;;;;;;;17.70;99.90;;;;;;5076555;28;19951;-87
2021/08/18 08:04:33;;;;;;;;;;;17.70;99.90;;;;;;5083628;28;19923;-84
2021/08/18 08:06:58;;;;;;;;;;;17.80;99.90;;;;;;5070435;28;20386;-87
2021/08/18 08:09:24;;;;;;;;;;;17.90;99.90;;;;;;5074370;28;20184;-86
2021/08/18 08:11:49;;;;;;;;;;;18.00;99.90;;;;;;5070305;28;19938;-86
2021/08/18 08:14:15;;;;;;;;;;;18.00;99.90;;;;;;5070243;28;19947;-86
2021/08/18 08:16:41;;;;;;;;;;;18.10;99.90;;;;;;5068436;28;19936;-82
2021/08/18 08:19:06;;;;;;;;;;;18.10;99.90;;;;;;5069255;28;19920;-86
2021/08/18 08:21:32;;;;;;;;;;;18.10;99.90;;;;;;5075287;28;19916;-88
2021/08/18 08:23:59;;;;;;;;;;;18.10;99.90;;;;;;5071997;28;20476;-84
2021/08/18 08:26:24;;;;;;;;;;;18.10;99.90;;;;;;5075879;28;20299;-83
2021/08/18 08:28:50;;;;;;;;;;;18.10;99.90;;;;;;5074803;28;19927;-85
2021/08/18 08:31:16;;;;;;;;;;;18.10;99.90;;;;;;5066428;28;20313;-85
2021/08/18 08:33:41;;;;;;;;;;;18.20;99.90;;;;;;5073789;28;19931;-84
2021/08/18 08:36:08;;;;;;;;;;;18.10;99.90;;;;;;5075771;28;19920;-86
2021/08/18 08:38:33;;;;;;;;;;;18.20;99.90;;;;;;5078556;28;20219;-85
2021/08/18 08:40:59;;;;;;;;;;;18.20;99.90;;;;;;5076151;28;19912;-85
2021/08/18 08:43:25;;;;;;;;;;;18.30;99.90;;;;;;5075507;28;19912;-85
2021/08/18 08:45:51;;;;;;;;;;;18.30;99.90;;;;;;5073775;28;20331;-86
2021/08/18 08:48:17;;;;;;;;;;;18.30;99.90;;;;;;5071012;28;19944;-86
2021/08/18 08:50:43;;;;;;;;;;;18.40;99.90;;;;;;5071128;28;19999;-81
2021/08/18 08:53:09;;;;;;;;;;;18.40;99.90;;;;;;5075375;28;19966;-86
2021/08/18 08:55:35;;;;;;;;;;;18.40;99.90;;;;;;5073885;28;19916;-85
2021/08/18 08:58:00;;;;;;;;;;;18.40;99.90;;;;;;5073490;28;19912;-80
2021/08/18 09:00:26;;;;;;;;;;;18.40;99.90;;;;;;5074355;28;19919;-84
2021/08/18 09:03:09;;;;;;;;;;;18.50;99.90;;;;;;5073060;28;20264;-87
2021/08/18 09:05:35;;;;;;;;;;;18.50;99.90;;;;;;5073899;28;19959;-83
2021/08/18 09:08:01;;;;;;;;;;;18.60;99.90;;;;;;5071874;28;20067;-85
2021/08/18 09:10:27;;;;;;;;;;;18.60;99.90;;;;;;5073733;28;20000;-83
2021/08/18 09:13:07;;;;;;;;;;;18.60;99.90;;;;;;5072241;28;20023;-87
2021/08/18 09:15:33;;;;;;;;;;;18.70;99.90;;;;;;5069055;28;19920;-85
2021/08/18 09:17:58;;;;;;;;;;;18.70;99.90;;;;;;5072763;28;19925;-86
2021/08/18 09:20:25;;;;;;;;;;;18.70;99.90;;;;;;5062814;28;19918;-87
2021/08/18 09:22:50;;;;;;;;;;;18.80;99.90;;;;;;5069123;28;20305;-84
2021/08/18 09:25:21;;;;;;;;;;;18.80;99.90;;;;;;5070927;28;20012;-86
2021/08/18 09:27:51;;;;;;;;;;;18.80;99.90;;;;;;5073250;28;19939;-79
2021/08/18 09:30:19;;;;;;;;;;;18.80;99.90;;;;;;5072469;28;19992;-84
2021/08/18 09:32:44;;;;;;;;;;;18.70;99.90;;;;;;5073033;28;19916;-84
2021/08/18 09:35:11;;;;;;;;;;;18.60;99.90;;;;;;5073563;28;20184;-87
2021/08/18 09:37:41;;;;;;;;;;;18.50;99.90;;;;;;5073483;28;20263;-85
2021/08/18 09:40:21;;;;;;;;;;;18.40;99.90;;;;;;5070234;28;20282;-85
2021/08/18 09:42:47;;;;;;;;;;;18.40;99.90;;;;;;5067839;28;19916;-83
2021/08/18 09:45:17;;;;;;;;;;;18.30;99.90;;;;;;5072697;28;19913;-84
2021/08/18 09:47:51;;;;;;;;;;;18.20;99.90;;;;;;5072027;28;19920;-81
2021/08/18 09:50:17;;;;;;;;;;;18.10;99.90;;;;;;5069355;28;19913;-83
2021/08/18 09:52:43;;;;;;;;;;;18.10;99.90;;;;;;5073478;28;19923;-82
2021/08/18 09:55:11;;;;;;;;;;;18.10;99.90;;;;;;5073513;28;19924;-85
2021/08/18 09:57:37;;;;;;;;;;;18.10;99.90;;;;;;5070873;28;19913;-82
2021/08/18 10:00:03;;;;;;;;;;;18.10;99.90;;;;;;5073676;28;19920;-86
2021/08/18 10:04:55;;;;;;;;;;;18.20;99.90;;;;;;5073285;28;19917;-76
2021/08/18 10:07:22;;;;;;;;;;;18.20;99.90;;;;;;5068150;28;19917;-87
2021/08/18 10:09:48;;;;;;;;;;;18.30;99.90;;;;;;5074149;28;19974;-86
2021/08/18 10:12:14;;;;;;;;;;;18.40;99.90;;;;;;5068791;28;20286;-84
2021/08/18 10:14:40;;;;;;;;;;;18.50;99.90;;;;;;5073907;28;19912;-85
2021/08/18 10:17:05;;;;;;;;;;;18.50;99.90;;;;;;5068814;28;19966;-86
2021/08/18 10:19:31;;;;;;;;;;;18.60;99.90;;;;;;5070973;28;19940;-86
2021/08/18 10:22:00;;;;;;;;;;;18.60;99.90;;;;;;5076053;28;19983;-84
2021/08/18 10:24:29;;;;;;;;;;;18.70;99.90;;;;;;5075111;28;20335;-84
2021/08/18 10:26:54;;;;;;;;;;;18.70;99.90;;;;;;5076517;28;19912;-86
2021/08/18 10:29:30;;;;;;;;;;;18.70;99.90;;;;;;5075561;28;20373;-85
2021/08/18 10:32:06;;;;;;;;;;;18.80;99.90;;;;;;5076293;28;19917;-85
2021/08/18 10:34:35;;;;;;;;;;;18.90;99.90;;;;;;5074690;28;19925;-86
2021/08/18 10:37:03;;;;;;;;;;;19.00;99.90;;;;;;5076538;28;19950;-82
2021/08/18 10:39:39;;;;;;;;;;;19.10;99.90;;;;;;5072332;28;19913;-84
2021/08/18 10:42:04;;;;;;;;;;;19.10;99.90;;;;;;5091441;28;19912;-85
2021/08/18 10:44:39;;;;;;;;;;;19.10;99.90;;;;;;5072135;28;20350;-82
2021/08/18 10:47:12;;;;;;;;;;;19.20;99.90;;;;;;5074059;28;19913;-79
2021/08/18 10:49:38;;;;;;;;;;;19.10;99.90;;;;;;5073753;28;19995;-82
2021/08/18 10:52:03;;;;;;;;;;;19.20;99.90;;;;;;5074915;28;20046;-81
2021/08/18 10:54:29;;;;;;;;;;;19.40;99.90;;;;;;5071848;28;20334;-83
2021/08/18 10:56:58;;;;;;;;;;;19.40;99.90;;;;;;5074710;28;19928;-80
2021/08/18 10:59:36;;;;;;;;;;;19.50;99.90;;;;;;5075925;28;19920;-80
2021/08/18 11:02:03;;;;;;;;;;;19.50;99.90;;;;;;5075058;28;20011;-81
2021/08/18 11:04:43;;;;;;;;;;;19.60;99.90;;;;;;5073793;28;19913;-80
2021/08/18 11:07:09;;;;;;;;;;;19.60;99.90;;;;;;5073561;28;19981;-80
2021/08/18 11:09:50;;;;;;;;;;;19.70;99.90;;;;;;5076495;28;20354;-80
2021/08/18 11:12:35;;;;;;;;;;;19.70;99.90;;;;;;5075665;28;19917;-80
2021/08/18 11:15:00;;;;;;;;;;;19.80;99.90;;;;;;5075334;28;19916;-80
2021/08/18 11:17:26;;;;;;;;;;;20.00;99.90;;;;;;5072422;28;19916;-81
2021/08/18 11:19:53;;;;;;;;;;;20.10;99.90;;;;;;5074565;28;19961;-81
2021/08/18 11:22:19;;;;;;;;;;;20.20;99.90;;;;;;5073490;28;19912;-81
2021/08/18 11:24:44;;;;;;;;;;;20.20;99.90;;;;;;5077991;28;19919;-81
2021/08/18 11:27:10;;;;;;;;;;;20.20;99.90;;;;;;5075357;28;19920;-80
2021/08/18 11:29:36;;;;;;;;;;;20.10;99.90;;;;;;5072281;28;19927;-81
2021/08/18 11:32:01;;;;;;;;;;;19.90;99.90;;;;;;5074177;28;19986;-81
2021/08/18 11:34:28;;;;;;;;;;;19.90;99.90;;;;;;5072695;28;19985;-79
2021/08/18 11:37:14;;;;;;;;;;;19.80;99.90;;;;;;5073654;28;19920;-78
2021/08/18 11:39:41;;;;;;;;;;;19.70;99.90;;;;;;5069290;28;20358;-80
2021/08/18 11:42:18;;;;;;;;;;;19.50;99.90;;;;;;5076285;28;20205;-81
2021/08/18 11:44:44;;;;;;;;;;;19.50;99.90;;;;;;5074678;28;20374;-76
2021/08/18 11:47:11;;;;;;;;;;;19.40;99.90;;;;;;5056894;28;20310;-82
2021/08/18 11:49:37;;;;;;;;;;;19.40;99.90;;;;;;5073255;28;20424;-80
2021/08/18 11:52:04;;;;;;;;;;;19.40;99.90;;;;;;5062096;28;19980;-81
2021/08/18 11:54:29;;;;;;;;;;;19.50;99.90;;;;;;5076683;28;20292;-81
2021/08/18 11:57:00;;;;;;;;;;;19.50;99.90;;;;;;5071479;28;19923;-80
2021/08/18 11:59:26;;;;;;;;;;;19.60;99.90;;;;;;5075544;28;19919;-81
2021/08/18 12:01:52;;;;;;;;;;;19.60;99.90;;;;;;5075530;28;20291;-80
2021/08/18 12:04:22;;;;;;;;;;;19.60;99.90;;;;;;5062879;28;20227;-80
2021/08/18 12:07:02;;;;;;;;;;;19.70;99.90;;;;;;5080083;28;19935;-80
2021/08/18 12:09:28;;;;;;;;;;;19.70;99.90;;;;;;5062926;28;19923;-80
2021/08/18 12:12:04;;;;;;;;;;;19.80;99.90;;;;;;5056779;28;19995;-80
2021/08/18 12:14:36;;;;;;;;;;;19.90;99.90;;;;;;5074215;28;19919;-79
2021/08/18 12:17:01;;;;;;;;;;;20.00;99.90;;;;;;5075665;28;19927;-82
2021/08/18 12:19:28;;;;;;;;;;;20.10;99.90;;;;;;5067106;28;19913;-82
2021/08/18 12:22:05;;;;;;;;;;;20.20;99.90;;;;;;5072280;28;19920;-80
2021/08/18 12:24:31;;;;;;;;;;;20.30;99.90;;;;;;5072796;28;19919;-82
2021/08/18 12:27:01;;;;;;;;;;;20.30;99.90;;;;;;5078150;28;20212;-83
2021/08/18 12:29:28;;;;;;;;;;;20.50;99.90;;;;;;5068772;28;19919;-80
2021/08/18 12:32:01;;;;;;;;;;;20.50;99.90;;;;;;5074940;28;20315;-77
2021/08/18 12:34:30;;;;;;;;;;;20.60;99.90;;;;;;5084389;28;19924;-81
2021/08/18 12:37:03;;;;;;;;;;;20.50;99.90;;;;;;5078948;28;19916;-80
2021/08/18 12:39:33;;;;;;;;;;;20.60;99.90;;;;;;5080483;28;19934;-81
2021/08/18 12:41:59;;;;;;;;;;;20.60;99.90;;;;;;5071601;28;19912;-81
2021/08/18 12:44:33;;;;;;;;;;;20.70;99.90;;;;;;5074317;28;19912;-79
2021/08/18 12:47:04;;;;;;;;;;;20.90;99.90;;;;;;5066977;28;19920;-80
2021/08/18 12:49:31;;;;;;;;;;;20.80;99.90;;;;;;5057014;28;19946;-80
2021/08/18 12:51:58;;;;;;;;;;;20.70;99.90;;;;;;5070975;28;19974;-79
2021/08/18 12:54:24;;;;;;;;;;;20.50;99.90;;;;;;5065717;28;19926;-79
2021/08/18 12:56:49;;;;;;;;;;;20.40;99.90;;;;;;5070754;28;20254;-81
2021/08/18 12:59:15;;;;;;;;;;;20.40;99.90;;;;;;5067929;28;19913;-79
2021/08/18 13:01:41;;;;;;;;;;;20.40;99.90;;;;;;5068872;28;19932;-78
2021/08/18 13:04:07;;;;;;;;;;;20.50;99.90;;;;;;5060595;28;20227;-81
2021/08/18 13:06:32;;;;;;;;;;;20.60;99.90;;;;;;5070443;28;19912;-81
2021/08/18 13:08:58;;;;;;;;;;;20.70;99.90;;;;;;5074459;28;19919;-80
2021/08/18 13:11:23;;;;;;;;;;;20.70;99.90;;;;;;5075596;28;19920;-80
2021/08/18 13:13:49;;;;;;;;;;;20.60;99.90;;;;;;5067199;28;20302;-80
2021/08/18 13:16:15;;;;;;;;;;;20.50;99.90;;;;;;5088208;28;19916;-81
2021/08/18 13:18:40;;;;;;;;;;;20.60;99.90;;;;;;5081010;28;19913;-84
2021/08/18 13:21:06;;;;;;;;;;;20.50;99.90;;;;;;5068915;28;19935;-85
2021/08/18 13:23:32;;;;;;;;;;;20.40;99.90;;;;;;5074083;28;19950;-83
2021/08/18 13:25:57;;;;;;;;;;;20.30;99.90;;;;;;5072055;28;20196;-79
2021/08/18 13:28:23;;;;;;;;;;;20.10;99.90;;;;;;5066400;28;20299;-81
2021/08/18 13:30:48;;;;;;;;;;;19.80;99.90;;;;;;5072349;28;19935;-81
2021/08/18 13:33:14;;;;;;;;;;;19.60;99.90;;;;;;5069892;28;19958;-79
2021/08/18 13:35:40;;;;;;;;;;;19.50;99.90;;;;;;5068427;28;19920;-81
2021/08/18 13:38:05;;;;;;;;;;;19.40;99.90;;;;;;5072997;28;20508;-82
2021/08/18 13:40:31;;;;;;;;;;;19.30;99.90;;;;;;5072667;28;19917;-83
2021/08/18 13:42:57;;;;;;;;;;;19.30;99.90;;;;;;5068469;28;19908;-83
2021/08/18 13:45:23;;;;;;;;;;;19.30;99.90;;;;;;5075401;28;19995;-82
2021/08/18 13:47:49;;;;;;;;;;;19.40;99.90;;;;;;5073508;28;20004;-84
2021/08/18 13:50:14;;;;;;;;;;;19.50;99.90;;;;;;5069750;28;19991;-79
2021/08/18 13:52:40;;;;;;;;;;;19.50;99.90;;;;;;5077143;28;19913;-82
2021/08/18 13:55:05;;;;;;;;;;;19.50;99.90;;;;;;5074279;28;19927;-81
2021/08/18 13:57:31;;;;;;;;;;;19.60;99.90;;;;;;5071992;28;20318;-82
2021/08/18 13:59:57;;;;;;;;;;;19.60;99.90;;;;;;5063778;28;19952;-83
2021/08/18 14:02:22;;;;;;;;;;;19.60;99.90;;;;;;5071355;28;19912;-84
2021/08/18 14:04:48;;;;;;;;;;;19.60;99.90;;;;;;5070136;28;20303;-82
2021/08/18 14:07:13;;;;;;;;;;;19.70;99.90;;;;;;5070521;28;19917;-80
2021/08/18 14:09:39;;;;;;;;;;;19.70;99.90;;;;;;5061473;28;19913;-83
2021/08/18 14:12:05;;;;;;;;;;;19.70;99.90;;;;;;5067578;28;19912;-79
2021/08/18 14:14:30;;;;;;;;;;;19.70;99.90;;;;;;5068794;28;19985;-82